Killarney, Canada
Current Conditions -  °F | °C
As of 5:00 PM on Friday 24 Oct 2014 (Local Time) from CYZE Reporting Station
Overcast Overcast  
Wind Chill: 52°   Ceiling: 2400
Heat Index: 52°   Visibility: 9mi
Dew Point: 46°   Wind: 5mph
Humidity: 82%   Direction: 250°WSW
Pressure: 29.92"   Gusts: NA
Location:  45.98°N, 81.5°W
Report Text: CYZE 242100Z AUTO 25004KT 9SM OVC024 11/08 A2992 RMK SLP137
Loading
Personal Weather Stations






























Interactive Weather Map
Tropical Storm Tracking
New forecast layout! Learn more

10-Day Weather Forecast

Advertisements
Track Severe Weather on mobile